createdAt,value
2023-05-12T00:01:51.810Z,100.00
2023-05-12T00:04:17.899Z,100.00
2023-05-12T00:06:44.053Z,100.00
2023-05-12T00:09:10.211Z,100.00
2023-05-12T00:11:37.281Z,100.00
2023-05-12T00:14:03.400Z,100.00
2023-05-12T00:16:29.517Z,100.00
2023-05-12T00:18:55.812Z,100.00
2023-05-12T00:21:21.927Z,100.00
2023-05-12T00:23:48.053Z,100.00
2023-05-12T00:26:14.162Z,100.00
2023-05-12T00:28:40.237Z,100.00
2023-05-12T00:31:06.379Z,100.00
2023-05-12T00:33:32.520Z,100.00
2023-05-12T00:36:00.466Z,100.00
2023-05-12T00:38:27.226Z,100.00
2023-05-12T00:40:53.305Z,100.00
2023-05-12T00:43:19.380Z,100.00
2023-05-12T00:45:45.575Z,100.00
2023-05-12T00:48:11.835Z,100.00
2023-05-12T00:50:37.999Z,100.00
2023-05-12T00:53:04.160Z,100.00
2023-05-12T00:55:30.733Z,100.00
2023-05-12T00:57:56.817Z,100.00
2023-05-12T01:00:22.929Z,100.00
2023-05-12T01:02:49.076Z,100.00
2023-05-12T01:05:15.280Z,100.00
2023-05-12T01:07:41.892Z,100.00
2023-05-12T01:10:21.058Z,100.00
2023-05-12T01:12:47.674Z,100.00
2023-05-12T01:15:13.834Z,100.00
2023-05-12T01:17:44.891Z,100.00
2023-05-12T01:20:12.029Z,100.00
2023-05-12T01:22:38.690Z,100.00
2023-05-12T01:25:07.425Z,100.00
2023-05-12T01:27:33.950Z,100.00
2023-05-12T01:30:01.601Z,100.00
2023-05-12T01:32:28.764Z,100.00
2023-05-12T01:34:54.948Z,100.00
2023-05-12T01:37:21.284Z,100.00
2023-05-12T01:39:47.431Z,100.00
2023-05-12T01:42:13.504Z,100.00
2023-05-12T01:44:39.603Z,100.00
2023-05-12T01:47:09.113Z,100.00
2023-05-12T01:49:35.317Z,100.00
2023-05-12T01:52:01.393Z,100.00
2023-05-12T01:54:27.541Z,100.00
2023-05-12T01:56:53.592Z,100.00
2023-05-12T01:59:19.732Z,100.00
2023-05-12T02:01:45.875Z,100.00
2023-05-12T02:04:12.094Z,100.00
2023-05-12T02:06:38.323Z,100.00
2023-05-12T02:09:04.466Z,100.00
2023-05-12T02:11:30.523Z,100.00
2023-05-12T02:13:56.653Z,100.00
2023-05-12T02:16:22.846Z,100.00
2023-05-12T02:18:48.992Z,100.00
2023-05-12T02:21:15.331Z,100.00
2023-05-12T02:23:41.406Z,100.00
2023-05-12T02:26:07.619Z,100.00
2023-05-12T02:28:33.708Z,100.00
2023-05-12T02:30:59.840Z,100.00
2023-05-12T02:33:26.172Z,100.00
2023-05-12T02:35:52.258Z,100.00
2023-05-12T02:38:18.442Z,100.00
2023-05-12T02:40:45.802Z,100.00
2023-05-12T02:43:11.865Z,100.00
2023-05-12T02:45:38.510Z,100.00
2023-05-12T02:48:05.139Z,100.00
2023-05-12T02:50:31.368Z,100.00
2023-05-12T02:52:57.456Z,100.00
2023-05-12T02:55:23.654Z,100.00
2023-05-12T02:57:49.728Z,100.00
2023-05-12T03:00:15.952Z,100.00
2023-05-12T03:02:42.386Z,100.00
2023-05-12T03:05:08.825Z,100.00
2023-05-12T03:07:35.118Z,100.00
2023-05-12T03:10:01.338Z,100.00
2023-05-12T03:12:30.757Z,100.00
2023-05-12T03:14:57.026Z,100.00
2023-05-12T03:17:23.309Z,100.00
2023-05-12T03:19:49.397Z,100.00
2023-05-12T03:22:15.520Z,100.00
2023-05-12T03:24:41.637Z,100.00
2023-05-12T03:27:07.760Z,100.00
2023-05-12T03:29:33.855Z,100.00
2023-05-12T03:32:00.017Z,100.00
2023-05-12T03:34:26.084Z,100.00
2023-05-12T03:36:52.155Z,100.00
2023-05-12T03:39:18.221Z,100.00
2023-05-12T03:41:44.314Z,100.00
2023-05-12T03:44:11.568Z,100.00
2023-05-12T03:46:37.828Z,100.00
2023-05-12T03:49:04.016Z,100.00
2023-05-12T03:51:30.499Z,100.00
2023-05-12T03:53:56.585Z,100.00
2023-05-12T03:56:22.713Z,100.00
2023-05-12T03:58:48.830Z,100.00
2023-05-12T04:01:15.152Z,100.00
2023-05-12T04:03:41.326Z,100.00
2023-05-12T04:06:07.697Z,100.00
2023-05-12T04:08:33.909Z,100.00
2023-05-12T04:11:01.626Z,100.00
2023-05-12T04:13:28.687Z,100.00
2023-05-12T04:15:58.552Z,100.00
2023-05-12T04:18:28.212Z,100.00
2023-05-12T04:20:54.699Z,100.00
2023-05-12T04:23:20.913Z,100.00
2023-05-12T04:25:47.042Z,100.00
2023-05-12T04:28:13.254Z,100.00
2023-05-12T04:30:40.079Z,100.00
2023-05-12T04:33:06.274Z,100.00
2023-05-12T04:35:32.409Z,100.00
2023-05-12T04:38:00.584Z,100.00
2023-05-12T04:40:26.927Z,100.00
2023-05-12T04:42:53.162Z,100.00
2023-05-12T04:45:19.512Z,100.00
2023-05-12T04:47:46.082Z,100.00
2023-05-12T04:50:12.681Z,100.00
2023-05-12T04:52:38.817Z,100.00
2023-05-12T04:55:05.847Z,100.00
2023-05-12T04:57:31.938Z,100.00
2023-05-12T04:59:58.710Z,100.00
2023-05-12T05:02:27.890Z,100.00
2023-05-12T05:04:54.072Z,100.00
2023-05-12T05:07:20.230Z,100.00
2023-05-12T05:09:46.280Z,100.00
2023-05-12T05:12:12.412Z,100.00
2023-05-12T05:14:38.548Z,100.00
2023-05-12T05:17:07.065Z,100.00
2023-05-12T05:19:46.158Z,100.00
2023-05-12T05:22:19.259Z,100.00
2023-05-12T05:24:45.345Z,100.00
2023-05-12T05:27:11.935Z,100.00
2023-05-12T05:29:37.992Z,100.00
2023-05-12T05:32:04.545Z,100.00
2023-05-12T05:34:31.121Z,100.00
2023-05-12T05:36:57.230Z,100.00
2023-05-12T05:39:23.382Z,100.00
2023-05-12T05:41:49.447Z,100.00
2023-05-12T05:44:15.515Z,100.00
2023-05-12T05:46:41.634Z,100.00
2023-05-12T05:49:07.821Z,100.00
2023-05-12T05:51:33.914Z,100.00
2023-05-12T05:53:59.963Z,100.00
2023-05-12T05:56:26.328Z,100.00
2023-05-12T05:58:52.556Z,100.00
2023-05-12T06:01:18.648Z,100.00
2023-05-12T06:03:44.831Z,100.00
2023-05-12T06:06:11.078Z,100.00
2023-05-12T06:08:37.168Z,100.00
2023-05-12T06:11:03.470Z,100.00
2023-05-12T06:13:29.525Z,100.00
2023-05-12T06:15:55.612Z,100.00
2023-05-12T06:18:22.084Z,100.00
2023-05-12T06:20:48.314Z,100.00
2023-05-12T06:23:14.393Z,100.00
2023-05-12T06:25:40.633Z,100.00
2023-05-12T06:28:07.268Z,100.00
2023-05-12T06:30:34.126Z,100.00
2023-05-12T06:33:00.530Z,100.00
2023-05-12T06:35:26.907Z,100.00
2023-05-12T06:37:53.034Z,100.00
2023-05-12T06:40:19.198Z,100.00
2023-05-12T06:42:45.347Z,100.00
2023-05-12T06:45:12.350Z,100.00
2023-05-12T06:47:39.624Z,100.00
2023-05-12T06:50:07.686Z,100.00
2023-05-12T06:52:34.479Z,100.00
2023-05-12T06:55:00.579Z,100.00
2023-05-12T06:57:26.661Z,100.00
2023-05-12T06:59:52.741Z,100.00
2023-05-12T07:02:19.134Z,100.00
2023-05-12T07:04:45.213Z,100.00
2023-05-12T07:07:11.276Z,100.00
2023-05-12T07:09:39.837Z,100.00
2023-05-12T07:12:06.497Z,100.00
2023-05-12T07:14:32.580Z,100.00
2023-05-12T07:16:58.616Z,100.00
2023-05-12T07:19:24.766Z,100.00
2023-05-12T07:21:50.828Z,100.00
2023-05-12T07:24:16.940Z,100.00
2023-05-12T07:26:43.861Z,100.00
2023-05-12T07:29:12.067Z,100.00
2023-05-12T07:31:40.013Z,100.00
2023-05-12T07:34:06.579Z,100.00
2023-05-12T07:36:33.022Z,100.00
2023-05-12T07:38:59.134Z,100.00
2023-05-12T07:41:25.487Z,100.00
2023-05-12T07:43:51.549Z,100.00
2023-05-12T07:46:17.578Z,100.00
2023-05-12T07:48:43.638Z,100.00
2023-05-12T07:51:09.885Z,100.00
2023-05-12T07:53:36.135Z,100.00
2023-05-12T07:56:02.360Z,100.00
2023-05-12T07:58:28.531Z,100.00
2023-05-12T08:00:54.744Z,100.00
2023-05-12T08:03:21.012Z,100.00
2023-05-12T08:05:47.184Z,100.00
2023-05-12T08:08:15.950Z,100.00
2023-05-12T08:10:43.288Z,100.00
2023-05-12T08:13:09.421Z,100.00
2023-05-12T08:15:35.577Z,100.00
2023-05-12T08:18:01.877Z,100.00
2023-05-12T08:20:28.053Z,100.00
2023-05-12T08:22:54.376Z,100.00
2023-05-12T08:25:20.793Z,100.00
2023-05-12T08:27:47.092Z,100.00
2023-05-12T08:30:13.420Z,100.00
2023-05-12T08:32:39.704Z,100.00
2023-05-12T08:35:05.888Z,100.00
2023-05-12T08:37:34.345Z,100.00
2023-05-12T08:40:01.026Z,100.00
2023-05-12T08:42:39.057Z,100.00
2023-05-12T08:45:06.795Z,100.00
2023-05-12T08:47:33.649Z,100.00
2023-05-12T08:50:01.791Z,100.00
2023-05-12T08:52:34.799Z,100.00
2023-05-12T08:55:03.269Z,100.00
2023-05-12T08:57:30.545Z,100.00
2023-05-12T08:59:58.635Z,100.00
2023-05-12T09:02:25.341Z,100.00
2023-05-12T09:04:52.149Z,100.00
2023-05-12T09:07:18.989Z,100.00
2023-05-12T09:09:47.062Z,100.00
2023-05-12T09:12:16.829Z,100.00
2023-05-12T09:14:45.176Z,100.00
2023-05-12T09:17:11.965Z,100.00
2023-05-12T09:19:38.104Z,100.00
2023-05-12T09:22:04.326Z,100.00
2023-05-12T09:24:37.971Z,100.00
2023-05-12T09:27:04.518Z,100.00
2023-05-12T09:29:34.455Z,100.00
2023-05-12T09:32:06.079Z,100.00
2023-05-12T09:34:37.688Z,100.00
2023-05-12T09:37:05.827Z,100.00
2023-05-12T09:39:32.567Z,100.00
2023-05-12T09:41:58.781Z,100.00
2023-05-12T09:44:25.521Z,100.00
2023-05-12T09:46:52.528Z,100.00
2023-05-12T09:49:19.889Z,100.00
2023-05-12T09:51:46.222Z,100.00
2023-05-12T09:54:13.250Z,100.00
2023-05-12T09:56:40.211Z,99.48
2023-05-12T09:59:06.574Z,94.51
2023-05-12T10:01:33.954Z,95.70
2023-05-12T10:04:00.401Z,95.41
2023-05-12T10:06:33.063Z,92.49
2023-05-12T10:09:15.080Z,95.43
2023-05-12T10:11:42.228Z,93.66
2023-05-12T10:14:09.208Z,97.45
2023-05-12T10:16:35.804Z,95.95
2023-05-12T10:19:03.668Z,96.38
2023-05-12T10:21:30.001Z,98.94
2023-05-12T10:23:56.342Z,97.72
2023-05-12T10:26:22.785Z,96.67
2023-05-12T10:28:49.829Z,91.52
2023-05-12T10:31:16.254Z,86.50
2023-05-12T10:33:42.371Z,92.80
2023-05-12T10:36:18.738Z,92.11
2023-05-12T10:38:48.964Z,94.87
2023-05-12T10:41:16.420Z,96.52
2023-05-12T10:43:46.568Z,96.87
2023-05-12T10:46:12.579Z,95.73
2023-05-12T10:49:00.280Z,98.63
2023-05-12T10:51:28.101Z,98.45
2023-05-12T10:54:05.355Z,93.74
2023-05-12T10:56:40.335Z,96.97
2023-05-12T10:59:20.931Z,95.57
2023-05-12T11:02:08.142Z,97.50
2023-05-12T11:04:46.020Z,93.69
2023-05-12T11:07:15.537Z,97.67
2023-05-12T11:09:56.653Z,97.02
2023-05-12T11:12:25.960Z,98.02
2023-05-12T11:14:52.140Z,98.16
2023-05-12T11:17:18.255Z,96.87
2023-05-12T11:19:48.851Z,94.73
2023-05-12T11:22:20.710Z,93.83
2023-05-12T11:24:47.920Z,95.85
2023-05-12T11:27:18.453Z,94.10
2023-05-12T11:29:46.461Z,92.92
2023-05-12T11:32:14.967Z,92.12
2023-05-12T11:34:41.111Z,92.00
2023-05-12T11:37:07.341Z,89.65
2023-05-12T11:39:33.493Z,87.52
2023-05-12T11:42:12.043Z,89.70
2023-05-12T11:44:47.070Z,86.16
2023-05-12T11:47:14.372Z,85.84
2023-05-12T11:49:56.356Z,86.43
2023-05-12T11:52:23.627Z,84.40
2023-05-12T11:54:51.358Z,83.45
2023-05-12T11:57:33.613Z,83.74
2023-05-12T12:00:02.308Z,75.54
2023-05-12T12:02:28.652Z,77.55
2023-05-12T12:04:54.908Z,76.93
2023-05-12T12:07:32.032Z,70.32
2023-05-12T12:09:58.814Z,66.95
2023-05-12T12:12:24.994Z,68.01
2023-05-12T12:14:51.195Z,62.90
2023-05-12T12:17:17.297Z,59.99
2023-05-12T12:19:43.432Z,59.60
2023-05-12T12:22:09.593Z,58.80
2023-05-12T12:24:35.870Z,58.09
2023-05-12T12:27:01.946Z,54.78
2023-05-12T12:29:28.135Z,55.03
2023-05-12T12:31:54.203Z,54.66
2023-05-12T12:34:20.252Z,54.29
2023-05-12T12:36:47.355Z,54.69
2023-05-12T12:39:13.923Z,54.46
2023-05-12T12:41:40.362Z,52.58
2023-05-12T12:44:06.594Z,51.11
2023-05-12T12:46:32.777Z,51.05
2023-05-12T12:48:58.954Z,54.13
2023-05-12T12:51:32.613Z,54.48
2023-05-12T12:54:04.839Z,51.44
2023-05-12T12:56:30.963Z,51.01
2023-05-12T12:58:57.008Z,50.70
2023-05-12T13:01:23.394Z,48.34
2023-05-12T13:03:49.461Z,50.76
2023-05-12T13:06:15.572Z,52.75
2023-05-12T13:08:42.325Z,52.85
2023-05-12T13:11:08.545Z,53.71
2023-05-12T13:13:36.240Z,54.59
2023-05-12T13:16:02.303Z,55.34
2023-05-12T13:18:28.404Z,54.93
2023-05-12T13:20:54.529Z,54.32
2023-05-12T13:23:20.807Z,53.79
2023-05-12T13:25:48.136Z,55.54
2023-05-12T13:28:14.196Z,54.33
2023-05-12T13:30:40.347Z,54.92
2023-05-12T13:33:06.686Z,56.50
2023-05-12T13:35:32.895Z,54.71
2023-05-12T13:37:59.019Z,56.33
2023-05-12T13:40:25.133Z,56.43
2023-05-12T13:42:51.254Z,54.20
2023-05-12T13:45:19.447Z,54.85
2023-05-12T13:47:45.784Z,56.18
2023-05-12T13:50:11.907Z,58.66
2023-05-12T13:52:38.026Z,58.71
2023-05-12T13:55:04.517Z,56.15
2023-05-12T13:57:30.588Z,56.84
2023-05-12T13:59:57.815Z,56.94
2023-05-12T14:02:24.489Z,55.30
2023-05-12T14:04:50.936Z,53.29
2023-05-12T14:07:18.588Z,53.11
2023-05-12T14:09:44.902Z,50.70
2023-05-12T14:12:11.251Z,48.50
2023-05-12T14:14:37.381Z,48.92
2023-05-12T14:17:03.592Z,49.29
2023-05-12T14:19:29.971Z,49.07
2023-05-12T14:21:56.029Z,45.68
2023-05-12T14:24:22.108Z,43.13
2023-05-12T14:26:48.565Z,42.92
2023-05-12T14:29:14.651Z,43.28
2023-05-12T14:31:40.790Z,44.22
2023-05-12T14:34:08.469Z,45.64
2023-05-12T14:36:34.612Z,45.02
2023-05-12T14:39:00.675Z,45.28
2023-05-12T14:41:26.782Z,45.94
2023-05-12T14:43:52.862Z,45.56
2023-05-12T14:46:18.988Z,46.14
2023-05-12T14:48:45.198Z,46.37
2023-05-12T14:51:11.298Z,49.22
2023-05-12T14:53:37.382Z,48.35
2023-05-12T14:56:03.659Z,48.29
2023-05-12T14:58:30.169Z,48.42
2023-05-12T15:00:56.348Z,47.24
2023-05-12T15:03:23.002Z,46.23
2023-05-12T15:06:04.891Z,46.65
2023-05-12T15:08:32.297Z,46.50
2023-05-12T15:10:58.396Z,46.34
2023-05-12T15:13:24.478Z,47.20
2023-05-12T15:15:51.883Z,46.98
2023-05-12T15:18:20.260Z,46.18
2023-05-12T15:20:46.386Z,47.16
2023-05-12T15:23:12.522Z,47.09
2023-05-12T15:25:39.893Z,47.69
2023-05-12T15:28:06.787Z,48.17
2023-05-12T15:30:34.214Z,49.30
2023-05-12T15:33:03.264Z,47.15
2023-05-12T15:35:29.805Z,47.52
2023-05-12T15:37:55.873Z,47.57
2023-05-12T15:40:22.091Z,47.38
2023-05-12T15:42:48.814Z,46.56
2023-05-12T15:45:14.997Z,47.40
2023-05-12T15:47:41.203Z,48.35
2023-05-12T15:50:09.602Z,47.05
2023-05-12T15:52:35.687Z,45.78
2023-05-12T15:55:01.794Z,46.77
2023-05-12T15:57:27.855Z,46.26
2023-05-12T15:59:58.103Z,46.26
2023-05-12T16:02:24.469Z,46.15
2023-05-12T16:04:50.640Z,46.50
2023-05-12T16:07:16.823Z,46.90
2023-05-12T16:09:42.888Z,46.19
2023-05-12T16:12:10.723Z,44.35
2023-05-12T16:14:36.872Z,44.05
2023-05-12T16:17:05.672Z,45.16
2023-05-12T16:19:31.791Z,44.65
2023-05-12T16:21:58.755Z,43.96
2023-05-12T16:24:27.694Z,44.49
2023-05-12T16:26:55.150Z,44.85
2023-05-12T16:29:21.228Z,46.39
2023-05-12T16:31:47.350Z,47.48
2023-05-12T16:34:13.425Z,47.47
2023-05-12T16:36:39.584Z,46.99
2023-05-12T16:39:06.860Z,46.64
2023-05-12T16:41:33.047Z,47.22
2023-05-12T16:44:00.162Z,45.79
2023-05-12T16:46:26.398Z,46.91
2023-05-12T16:48:52.508Z,46.87
2023-05-12T16:51:18.602Z,46.63
2023-05-12T16:53:44.671Z,46.83
2023-05-12T16:56:10.950Z,46.13
2023-05-12T16:58:37.135Z,47.14
2023-05-12T17:01:04.072Z,48.64
2023-05-12T17:03:30.886Z,48.05
2023-05-12T17:05:57.040Z,47.28
2023-05-12T17:08:23.936Z,46.96
2023-05-12T17:10:50.948Z,46.23
2023-05-12T17:13:17.053Z,46.61
2023-05-12T17:15:43.375Z,48.96
2023-05-12T17:18:09.595Z,47.66
2023-05-12T17:20:35.754Z,48.06
2023-05-12T17:23:01.907Z,48.49
2023-05-12T17:25:28.550Z,48.71
2023-05-12T17:27:55.832Z,48.44
2023-05-12T17:30:22.121Z,49.28
2023-05-12T17:32:48.277Z,49.13
2023-05-12T17:35:14.426Z,49.45
2023-05-12T17:37:40.821Z,48.99
2023-05-12T17:40:07.532Z,50.99
2023-05-12T17:42:34.472Z,51.86
2023-05-12T17:45:01.252Z,49.73
2023-05-12T17:47:27.467Z,47.92
2023-05-12T17:49:54.227Z,48.58
2023-05-12T17:52:20.393Z,50.86
2023-05-12T17:54:46.508Z,48.88
2023-05-12T17:57:12.617Z,48.63
2023-05-12T17:59:38.676Z,48.49
2023-05-12T18:02:05.160Z,50.01
2023-05-12T18:04:31.393Z,49.10
2023-05-12T18:06:58.731Z,51.49
2023-05-12T18:09:25.034Z,51.08
2023-05-12T18:11:51.876Z,51.54
2023-05-12T18:14:17.945Z,50.79
2023-05-12T18:16:44.042Z,51.52
2023-05-12T18:19:10.707Z,52.46
2023-05-12T18:21:37.368Z,53.08
2023-05-12T18:24:04.094Z,51.01
2023-05-12T18:26:30.193Z,51.88
2023-05-12T18:28:56.557Z,52.48
2023-05-12T18:31:22.719Z,52.67
2023-05-12T18:33:49.423Z,53.50
2023-05-12T18:36:15.923Z,53.93
2023-05-12T18:38:42.537Z,53.99
2023-05-12T18:41:08.770Z,54.70
2023-05-12T18:43:35.482Z,53.83
2023-05-12T18:46:02.121Z,54.55
2023-05-12T18:48:28.354Z,54.14
2023-05-12T18:50:55.331Z,55.23
2023-05-12T18:53:21.869Z,55.00
2023-05-12T18:55:49.069Z,55.30
2023-05-12T18:58:18.084Z,55.51
2023-05-12T19:00:44.386Z,56.01
2023-05-12T19:03:10.624Z,57.43
2023-05-12T19:05:37.153Z,59.13
2023-05-12T19:08:03.484Z,61.75
2023-05-12T19:10:30.034Z,63.41
2023-05-12T19:12:56.221Z,65.33
2023-05-12T19:15:22.623Z,66.08
2023-05-12T19:17:49.389Z,67.61
2023-05-12T19:20:15.625Z,77.36
2023-05-12T19:22:41.827Z,84.08
2023-05-12T19:25:08.732Z,84.87
2023-05-12T19:27:34.828Z,84.86
2023-05-12T19:30:04.514Z,83.23
2023-05-12T19:32:31.750Z,81.73
2023-05-12T19:34:59.432Z,82.41
2023-05-12T19:37:26.604Z,83.33
2023-05-12T19:39:53.118Z,82.78
2023-05-12T19:42:19.279Z,84.84
2023-05-12T19:44:45.324Z,81.43
2023-05-12T19:47:11.934Z,82.20
2023-05-12T19:49:38.251Z,80.98
2023-05-12T19:52:05.380Z,82.15
2023-05-12T19:54:31.514Z,82.85
2023-05-12T19:56:57.850Z,87.11
2023-05-12T19:59:24.110Z,86.60
2023-05-12T20:01:50.643Z,90.87
2023-05-12T20:04:16.853Z,92.33
2023-05-12T20:06:43.033Z,90.44
2023-05-12T20:09:09.637Z,91.26
2023-05-12T20:11:35.849Z,95.26
2023-05-12T20:14:01.955Z,93.96
2023-05-12T20:16:28.911Z,92.23
2023-05-12T20:18:55.319Z,94.14
2023-05-12T20:21:21.465Z,92.29
2023-05-12T20:23:47.550Z,92.17
2023-05-12T20:26:13.707Z,94.72
2023-05-12T20:28:40.395Z,95.15
2023-05-12T20:31:06.672Z,94.21
2023-05-12T20:33:32.974Z,93.55
2023-05-12T20:35:59.248Z,91.66
2023-05-12T20:38:26.031Z,93.81
2023-05-12T20:40:52.246Z,95.09
2023-05-12T20:43:18.376Z,94.74
2023-05-12T20:45:44.496Z,93.80
2023-05-12T20:48:10.718Z,93.37
2023-05-12T20:50:36.867Z,93.36
2023-05-12T20:53:03.918Z,93.05
2023-05-12T20:55:32.292Z,91.74
2023-05-12T20:57:58.356Z,94.37
2023-05-12T21:00:24.434Z,94.35
2023-05-12T21:02:51.523Z,95.11
2023-05-12T21:05:18.548Z,95.37
2023-05-12T21:07:44.751Z,95.20
2023-05-12T21:10:10.834Z,97.07
2023-05-12T21:12:37.875Z,97.49
2023-05-12T21:15:04.650Z,95.23
2023-05-12T21:17:30.726Z,94.84
2023-05-12T21:19:56.862Z,95.28
2023-05-12T21:22:22.934Z,95.88
2023-05-12T21:24:51.065Z,97.30
2023-05-12T21:27:17.893Z,98.88
2023-05-12T21:29:43.946Z,99.10
2023-05-12T21:32:10.522Z,99.81
2023-05-12T21:34:36.737Z,100.00
2023-05-12T21:37:02.909Z,100.00
2023-05-12T21:39:29.049Z,100.00
2023-05-12T21:41:55.139Z,100.00
2023-05-12T21:44:21.197Z,100.00
2023-05-12T21:46:47.356Z,100.00
2023-05-12T21:49:13.487Z,100.00
2023-05-12T21:51:39.550Z,100.00
2023-05-12T21:54:05.667Z,100.00
2023-05-12T21:56:31.832Z,100.00
2023-05-12T21:58:57.898Z,100.00
2023-05-12T22:01:24.083Z,100.00
2023-05-12T22:03:50.650Z,100.00
2023-05-12T22:06:17.176Z,100.00
2023-05-12T22:08:43.352Z,100.00
2023-05-12T22:11:10.505Z,100.00
2023-05-12T22:13:36.735Z,100.00
2023-05-12T22:16:03.211Z,100.00
2023-05-12T22:18:29.325Z,100.00
2023-05-12T22:20:55.443Z,100.00
2023-05-12T22:23:21.593Z,100.00
2023-05-12T22:25:47.704Z,100.00
2023-05-12T22:28:13.823Z,100.00
2023-05-12T22:30:41.198Z,100.00
2023-05-12T22:33:07.352Z,100.00
2023-05-12T22:35:33.480Z,100.00
2023-05-12T22:37:59.671Z,100.00
2023-05-12T22:40:26.441Z,100.00
2023-05-12T22:42:52.570Z,100.00
2023-05-12T22:45:18.725Z,100.00
2023-05-12T22:47:44.981Z,100.00
2023-05-12T22:50:11.418Z,100.00
2023-05-12T22:52:37.563Z,100.00
2023-05-12T22:55:04.088Z,100.00
2023-05-12T22:57:30.328Z,100.00
2023-05-12T22:59:56.418Z,100.00
2023-05-12T23:02:22.525Z,100.00
2023-05-12T23:04:48.652Z,100.00
2023-05-12T23:07:15.150Z,100.00
2023-05-12T23:09:41.267Z,100.00
2023-05-12T23:12:07.572Z,100.00
2023-05-12T23:14:33.679Z,100.00
2023-05-12T23:16:59.804Z,100.00
2023-05-12T23:19:25.937Z,100.00
2023-05-12T23:21:52.023Z,100.00
2023-05-12T23:24:18.338Z,100.00
2023-05-12T23:26:44.809Z,100.00
2023-05-12T23:29:10.963Z,100.00
2023-05-12T23:31:37.142Z,100.00
2023-05-12T23:34:03.219Z,100.00
2023-05-12T23:36:30.676Z,100.00
2023-05-12T23:38:56.805Z,100.00
2023-05-12T23:41:22.940Z,100.00
2023-05-12T23:43:49.036Z,100.00
2023-05-12T23:46:15.137Z,100.00
2023-05-12T23:48:41.536Z,100.00
2023-05-12T23:51:07.615Z,100.00
2023-05-12T23:53:33.796Z,100.00
2023-05-12T23:56:01.199Z,100.00
2023-05-12T23:58:27.261Z,100.00
